Alger, MI (48610)

8:50 PM EDT on September 18, 2014 (GMT -0400)
RAWS ALGER MI US | Change Station
CLOSE
Current Station
Personal Weather Station
Location: Alger, MI
Elevation: 783 ft
Nearby Weather Stations

Elev 783 ft 44.13 °N, 84.12 °W | Updated 49 minutes ago

Overcast
Overcast
48 °F
Feels Like 48 °F
N
1
Wind Variable Wind from South
Gusts 5.0 mph

Today
High -- | Low -- °F
--% Chance of Precip.
Yesterday
High -- | Low -- °F
Precip. -- in
7:18 AM 7:41 PM
Waning Crescent, 23% visible
Pressure 30.19 in
Visibility 10.0 miles
Clouds Overcast 3600 ft
Windchill 48 °F
Dew Point 45 °F
Humidity 89%
Rainfall 0.00 in
Snow Depth Not available.
UV 0 out of 12
Pollen 3.50 out of 12
Ozone Good
PM2.5 Good
Flu Activity Not available.
METAR KHTL 182353Z AUTO 12006KT 10SM OVC036 11/07 A3017 RMK AO2 SLP223 T01060072 10156 20106 55002

More Conditions Fewer Conditions

Pressure 30.19 in
Visibility 10.0 miles
Clouds Overcast 3600 ft
Windchill 48 °F
Dew Point 45 °F
Humidity 89%
Rainfall 0.00 in
Snow Depth Not available.
UV 0 out of 12
Pollen 3.50 out of 12
Ozone Good
PM2.5 Good
Flu Activity Not available.
METAR KHTL 182353Z AUTO 12006KT 10SM OVC036 11/07 A3017 RMK AO2 SLP223 T01060072 10156 20106 55002

More Conditions Fewer Conditions

Nowcast | as of 8:00 PM EDT on September 18, 2014

At 9 PM...partly cloudy. Temperature 48. East winds 5 mph. At 11 PM...partly cloudy. Temperature 44. Light winds. At 1 am...partly cloudy. Temperature 43. Light winds. At 3 am...partly cloudy. Patchy frost. Temperature 41. Light winds.

×

10-Day Weather Forecast

Almanac

Astronomy

Sep. 18, 2014 Rise Set
Actual Time 7:18 AM EDT 7:41 PM EDT
Civil Twilight 6:49 AM EDT 8:10 PM EDT
Nautical Twilight 6:15 AM EDT 8:44 PM EDT
Astronomical Twilight 5:40 AM EDT 9:19 PM EDT
Moon 2:01 AM EDT (9/18) 4:39 PM EDT (9/18)
Length of Visible Light 13h 20m
Length of Day
12h 22m
Tomorrow will be 3m 0s shorter.
Waning Crescent, 23% of the Moon is Illuminated
Today
Waning Crescent
Sep 24
New
Oct 1
First Quarter
Oct 8
Full
Oct 15
Last Quarter

Today's Extremes

State Highs State Lows

Community

WunderPhotos

Upload Photos

1,754,510 photos uploaded!

Nearby

Air Quality

  Air Quality AQ Index Pollutant
Yesterday Good
OZONE
Yesterday Good
PM2.5
Current Good
PM2.5
Current Good
OZONE
Thursday Good
OZONE
Thursday Good
PM2.5
Friday Good
OZONE
Friday Good
PM2.5
Saturday Good
OZONE
Saturday Good
PM2.5
Sunday Good
OZONE
Sunday Good
PM2.5
Monday Good
OZONE
Monday Good
PM2.5

Snow Depth

Station Depth Elevation
No new snow has been reported.

Earthquake Activity

City Distance Mag. Time & Date
No recent earthquake activity has been reported nearby.
Minimum magnitude displayed is 2.5.

Coastal Water Temperatures

Place Temperature
Harbor Beach, MI 59.0 °F

Nearby Weather Stations